Time;durP1;ratioP1;P1;durP2;ratioP2;P2;SDS_P1;SDS_P2;PMS_P1;PMS_P2;Temp;Humidity;BMP_temperature;BMP_pressure;BME280_temperature;BME280_humidity;BME280_pressure;Samples;Min_cycle;Max_cycle;Signal;HPM_P1;HPM_P2
2023/11/10 00:00:43;;;;;;;1.60;0.70;;;;;;;;;;5894693;30;20058;-83
2023/11/10 00:03:45;;;;;;;2.72;1.23;;;;;;;;;;5911086;30;20060;-84
2023/11/10 00:06:47;;;;;;;2.33;1.40;;;;;;;;;;5910064;30;20258;-85
2023/11/10 00:09:48;;;;;;;1.88;1.10;;;;;;;;;;5926127;29;20051;-85
2023/11/10 00:12:50;;;;;;;2.60;1.00;;;;;;;;;;5911308;30;20063;-85
2023/11/10 00:15:52;;;;;;;1.30;0.82;;;;;;;;;;5912768;30;20432;-84
2023/11/10 00:18:56;;;;;;;10.43;1.38;;;;;;;;;;5897163;30;20059;-85
2023/11/10 00:21:58;;;;;;;3.08;1.17;;;;;;;;;;5912497;30;20054;-82
2023/11/10 00:25:01;;;;;;;2.65;1.27;;;;;;;;;;5919151;30;20226;-83
2023/11/10 00:28:03;;;;;;;3.55;1.25;;;;;;;;;;5917440;30;20066;-82
2023/11/10 00:31:06;;;;;;;2.78;1.42;;;;;;;;;;5901048;30;20056;-83
2023/11/10 00:34:10;;;;;;;2.58;0.70;;;;;;;;;;5913483;30;20056;-82
2023/11/10 00:37:11;;;;;;;0.80;0.70;;;;;;;;;;5917573;30;20060;-85
2023/11/10 00:40:13;;;;;;;4.00;1.27;;;;;;;;;;5906798;30;20058;-83
2023/11/10 00:43:15;;;;;;;2.72;1.33;;;;;;;;;;5917222;30;20055;-82
2023/11/10 00:46:17;;;;;;;5.90;1.80;;;;;;;;;;5911250;30;20051;-82
2023/11/10 00:49:19;;;;;;;2.13;1.02;;;;;;;;;;5906321;30;20051;-83
2023/11/10 00:52:21;;;;;;;2.63;1.15;;;;;;;;;;5911583;30;20508;-82
2023/11/10 00:55:23;;;;;;;1.08;0.60;;;;;;;;;;5911829;30;20059;-85
2023/11/10 00:58:24;;;;;;;3.72;1.10;;;;;;;;;;5913122;30;20466;-84
2023/11/10 01:01:27;;;;;;;1.10;0.73;;;;;;;;;;5911676;29;20051;-84
2023/11/10 01:04:29;;;;;;;1.53;0.67;;;;;;;;;;5909744;30;20427;-84
2023/11/10 01:07:31;;;;;;;1.13;0.55;;;;;;;;;;5897707;30;20063;-84
2023/11/10 01:10:32;;;;;;;0.63;0.55;;;;;;;;;;5913646;29;20055;-82
2023/11/10 01:13:34;;;;;;;1.25;0.63;;;;;;;;;;5912682;29;20051;-82
2023/11/10 01:16:37;;;;;;;2.13;0.60;;;;;;;;;;5910932;29;20080;-84
2023/11/10 01:19:39;;;;;;;2.08;0.82;;;;;;;;;;5919042;30;20431;-84
2023/11/10 01:22:40;;;;;;;2.15;0.60;;;;;;;;;;5916533;29;20196;-84
2023/11/10 01:25:42;;;;;;;1.58;0.80;;;;;;;;;;5912599;30;20055;-82
2023/11/10 01:28:44;;;;;;;1.88;0.50;;;;;;;;;;5919305;30;20503;-84
2023/11/10 01:31:46;;;;;;;3.90;1.05;;;;;;;;;;5899125;30;20128;-81
2023/11/10 01:34:48;;;;;;;1.05;0.80;;;;;;;;;;5921190;29;20523;-84
2023/11/10 01:37:50;;;;;;;1.63;0.80;;;;;;;;;;5908183;30;20051;-83
2023/11/10 01:40:52;;;;;;;0.57;0.57;;;;;;;;;;5907074;30;20051;-83
2023/11/10 01:43:54;;;;;;;1.67;0.82;;;;;;;;;;5906370;30;20110;-81
2023/11/10 01:46:58;;;;;;;0.73;0.70;;;;;;;;;;5906813;30;20048;-82
2023/11/10 01:50:01;;;;;;;2.55;0.75;;;;;;;;;;5910183;30;20063;-82
2023/11/10 01:53:03;;;;;;;2.33;1.00;;;;;;;;;;5900888;30;20083;-83
2023/11/10 01:56:06;;;;;;;3.33;0.95;;;;;;;;;;5904897;30;20051;-85
2023/11/10 01:59:12;;;;;;;2.03;0.83;;;;;;;;;;5913670;30;20047;-85
2023/11/10 02:02:14;;;;;;;1.00;0.77;;;;;;;;;;5907578;30;20055;-84
2023/11/10 02:05:17;;;;;;;1.63;0.88;;;;;;;;;;5911195;30;20108;-84
2023/11/10 02:08:20;;;;;;;2.85;0.75;;;;;;;;;;5912000;30;20071;-81
2023/11/10 02:11:23;;;;;;;1.10;0.70;;;;;;;;;;5913102;30;20262;-84
2023/11/10 02:14:24;;;;;;;1.38;0.77;;;;;;;;;;5896266;30;20063;-81
2023/11/10 02:17:26;;;;;;;3.03;0.90;;;;;;;;;;5902082;29;20146;-85
2023/11/10 02:20:28;;;;;;;2.03;0.93;;;;;;;;;;5919897;29;20055;-84
2023/11/10 02:23:31;;;;;;;2.42;1.10;;;;;;;;;;5901673;29;20055;-84
2023/11/10 02:26:33;;;;;;;1.27;0.60;;;;;;;;;;5904049;29;20043;-82
2023/11/10 02:29:42;;;;;;;2.58;0.63;;;;;;;;;;5908547;29;20531;-83
2023/11/10 02:32:43;;;;;;;1.45;0.68;;;;;;;;;;5931548;29;20108;-84
2023/11/10 02:35:45;;;;;;;1.90;0.60;;;;;;;;;;5916424;29;20055;-83
2023/11/10 02:38:48;;;;;;;3.05;0.95;;;;;;;;;;5925806;29;20421;-83
2023/11/10 02:41:53;;;;;;;4.72;1.75;;;;;;;;;;5904713;30;20055;-82
2023/11/10 02:44:55;;;;;;;1.25;0.60;;;;;;;;;;5929458;29;20047;-82
2023/11/10 02:47:56;;;;;;;1.45;0.60;;;;;;;;;;5928401;29;20051;-83
2023/11/10 02:50:58;;;;;;;2.20;0.70;;;;;;;;;;5899431;29;20212;-82
2023/11/10 02:54:00;;;;;;;2.33;0.90;;;;;;;;;;5930717;29;20043;-84
2023/11/10 02:57:02;;;;;;;1.42;0.95;;;;;;;;;;5931535;29;20058;-83
2023/11/10 03:00:05;;;;;;;4.30;1.10;;;;;;;;;;5911990;29;20055;-84
2023/11/10 03:03:06;;;;;;;2.50;0.70;;;;;;;;;;5917151;29;20055;-84
2023/11/10 03:06:08;;;;;;;1.45;0.88;;;;;;;;;;5904053;29;20054;-83
2023/11/10 03:09:11;;;;;;;7.15;1.10;;;;;;;;;;5931337;29;20051;-83
2023/11/10 03:12:12;;;;;;;3.57;1.00;;;;;;;;;;5900386;29;20070;-83
2023/11/10 03:15:15;;;;;;;1.02;0.70;;;;;;;;;;5890694;30;20097;-82
2023/11/10 03:18:16;;;;;;;1.60;1.00;;;;;;;;;;5901761;29;20054;-85
2023/11/10 03:21:19;;;;;;;0.82;0.80;;;;;;;;;;5901085;29;20577;-85
2023/11/10 03:24:21;;;;;;;1.00;0.60;;;;;;;;;;5908669;29;20670;-83
2023/11/10 03:27:22;;;;;;;1.77;0.70;;;;;;;;;;5933350;29;20420;-84
2023/11/10 03:30:24;;;;;;;3.50;0.90;;;;;;;;;;5931666;29;20051;-84
2023/11/10 03:33:26;;;;;;;2.42;0.77;;;;;;;;;;5916957;29;20581;-85
2023/11/10 03:36:28;;;;;;;7.13;1.52;;;;;;;;;;5931092;29;20070;-82
2023/11/10 03:39:31;;;;;;;2.53;1.30;;;;;;;;;;5897099;29;20094;-84
2023/11/10 03:42:32;;;;;;;1.17;0.80;;;;;;;;;;5907098;29;20134;-84
2023/11/10 03:45:34;;;;;;;2.50;0.80;;;;;;;;;;5912269;29;20282;-83
2023/11/10 03:48:36;;;;;;;2.63;0.90;;;;;;;;;;5896968;29;20538;-83
2023/11/10 03:51:38;;;;;;;4.32;0.73;;;;;;;;;;5915528;29;20055;-82
2023/11/10 03:54:40;;;;;;;1.05;0.70;;;;;;;;;;5900329;29;20336;-84
2023/11/10 03:57:43;;;;;;;2.33;0.82;;;;;;;;;;5903620;29;20752;-84
2023/11/10 04:00:44;;;;;;;3.42;0.90;;;;;;;;;;5900937;29;20492;-83
2023/11/10 04:03:50;;;;;;;1.67;0.85;;;;;;;;;;5906838;29;20500;-83
2023/11/10 04:06:52;;;;;;;1.58;0.80;;;;;;;;;;5905764;30;20054;-85
2023/11/10 04:09:54;;;;;;;1.58;0.80;;;;;;;;;;5918928;29;20759;-85
2023/11/10 04:12:56;;;;;;;1.35;0.73;;;;;;;;;;5916074;29;20276;-82
2023/11/10 04:15:58;;;;;;;1.50;0.60;;;;;;;;;;5933102;29;20090;-84
2023/11/10 04:19:00;;;;;;;2.45;0.65;;;;;;;;;;5932552;29;20051;-82
2023/11/10 04:22:01;;;;;;;1.02;0.60;;;;;;;;;;5933053;29;20051;-84
2023/11/10 04:25:04;;;;;;;3.55;1.08;;;;;;;;;;5916946;29;20089;-85
2023/11/10 04:28:06;;;;;;;2.38;0.80;;;;;;;;;;5946246;29;20058;-82
2023/11/10 04:31:10;;;;;;;0.88;0.70;;;;;;;;;;5929796;29;20072;-81
2023/11/10 04:34:12;;;;;;;2.67;0.60;;;;;;;;;;5913386;29;20162;-84
2023/11/10 04:37:14;;;;;;;0.60;0.60;;;;;;;;;;5923252;30;20300;-82
2023/11/10 04:40:18;;;;;;;3.03;0.73;;;;;;;;;;5922372;29;20365;-83
2023/11/10 04:43:20;;;;;;;4.10;1.30;;;;;;;;;;5907836;29;20178;-83
2023/11/10 04:46:21;;;;;;;2.83;1.10;;;;;;;;;;5908017;29;20907;-85
2023/11/10 04:49:23;;;;;;;4.35;1.05;;;;;;;;;;5913375;29;20047;-82
2023/11/10 04:52:25;;;;;;;3.45;0.80;;;;;;;;;;5923253;30;20089;-86
2023/11/10 04:55:27;;;;;;;1.30;0.90;;;;;;;;;;5905905;30;20051;-82
2023/11/10 04:58:29;;;;;;;3.20;0.70;;;;;;;;;;5905551;29;20085;-84
2023/11/10 05:01:39;;;;;;;1.57;0.70;;;;;;;;;;5897819;29;20059;-83
2023/11/10 05:04:41;;;;;;;3.13;0.93;;;;;;;;;;5912460;29;20461;-83
2023/11/10 05:07:43;;;;;;;4.57;1.00;;;;;;;;;;5913200;29;20052;-83
2023/11/10 05:10:45;;;;;;;4.80;0.73;;;;;;;;;;5896837;29;20481;-84
2023/11/10 05:13:47;;;;;;;1.85;0.70;;;;;;;;;;5910891;29;20059;-84
2023/11/10 05:16:49;;;;;;;3.63;0.75;;;;;;;;;;5895144;29;20087;-85
2023/11/10 05:19:52;;;;;;;1.33;1.00;;;;;;;;;;5910019;29;20415;-83
2023/11/10 05:22:54;;;;;;;2.13;0.80;;;;;;;;;;5912015;29;20194;-86
2023/11/10 05:25:56;;;;;;;3.35;0.80;;;;;;;;;;5913093;29;20060;-85
2023/11/10 05:28:58;;;;;;;1.67;0.73;;;;;;;;;;5912725;29;20532;-85
2023/11/10 05:31:59;;;;;;;0.75;0.60;;;;;;;;;;5897540;29;20185;-84
2023/11/10 05:35:01;;;;;;;4.45;0.80;;;;;;;;;;5910384;29;20140;-85
2023/11/10 05:38:03;;;;;;;5.30;0.77;;;;;;;;;;5916557;29;20055;-83
2023/11/10 05:41:05;;;;;;;3.25;0.90;;;;;;;;;;5912216;29;20074;-84
2023/11/10 05:44:07;;;;;;;2.45;0.70;;;;;;;;;;5920188;29;20102;-85
2023/11/10 05:47:09;;;;;;;2.63;0.90;;;;;;;;;;5919500;29;20523;-82
2023/11/10 05:50:13;;;;;;;2.85;1.60;;;;;;;;;;5891531;30;20188;-85
2023/11/10 05:53:16;;;;;;;3.70;1.92;;;;;;;;;;5922661;30;20268;-82
2023/11/10 05:56:18;;;;;;;4.40;1.83;;;;;;;;;;5936513;29;20501;-84
2023/11/10 05:59:25;;;;;;;3.63;1.40;;;;;;;;;;5917310;30;20131;-85
2023/11/10 06:02:26;;;;;;;1.95;0.95;;;;;;;;;;5918687;30;20039;-83
2023/11/10 06:05:30;;;;;;;3.90;0.82;;;;;;;;;;5932442;29;20436;-82
2023/11/10 06:08:36;;;;;;;6.90;0.80;;;;;;;;;;5917691;29;20063;-82
2023/11/10 06:11:38;;;;;;;4.25;1.00;;;;;;;;;;5908495;30;20055;-81
2023/11/10 06:14:55;;;;;;;1.55;0.77;;;;;;;;;;5904550;30;20059;-84
2023/11/10 06:17:57;;;;;;;5.43;1.17;;;;;;;;;;5901278;30;20076;-83
2023/11/10 06:20:59;;;;;;;3.17;1.42;;;;;;;;;;5915439;29;20068;-84
2023/11/10 06:24:02;;;;;;;1.73;1.10;;;;;;;;;;5920133;29;20059;-84
2023/11/10 06:27:04;;;;;;;2.92;0.90;;;;;;;;;;5914047;30;20569;-82
2023/11/10 06:30:07;;;;;;;2.58;0.80;;;;;;;;;;5915528;29;20070;-82
2023/11/10 06:33:09;;;;;;;5.07;1.40;;;;;;;;;;5929039;29;20062;-83
2023/11/10 06:36:14;;;;;;;4.93;1.50;;;;;;;;;;5906689;30;20058;-83
2023/11/10 06:39:19;;;;;;;3.38;1.35;;;;;;;;;;5931190;29;20126;-84
2023/11/10 06:42:20;;;;;;;3.22;0.98;;;;;;;;;;5926839;29;20051;-83
2023/11/10 06:45:22;;;;;;;2.78;0.82;;;;;;;;;;5928498;29;20051;-82
2023/11/10 06:48:24;;;;;;;6.80;1.27;;;;;;;;;;5926879;29;20052;-82
2023/11/10 06:51:26;;;;;;;3.00;1.50;;;;;;;;;;5928868;29;20200;-84
2023/11/10 06:54:27;;;;;;;1.17;0.90;;;;;;;;;;5917041;29;20532;-83
2023/11/10 06:57:29;;;;;;;3.15;0.90;;;;;;;;;;5911539;30;20091;-84
2023/11/10 07:00:32;;;;;;;1.33;0.70;;;;;;;;;;5917922;29;20055;-82
2023/11/10 07:03:35;;;;;;;;;;;;;;;;;;5913379;29;20070;-85
2023/11/10 07:06:37;;;;;;;4.47;0.90;;;;;;;;;;5897338;29;20473;-82
2023/11/10 07:09:39;;;;;;;3.30;1.00;;;;;;;;;;5902965;29;20236;-82
2023/11/10 07:12:41;;;;;;;5.65;1.10;;;;;;;;;;5903128;30;20044;-85
2023/11/10 07:15:43;;;;;;;4.05;0.95;;;;;;;;;;5929574;29;20043;-84
2023/11/10 07:18:44;;;;;;;2.72;0.70;;;;;;;;;;5916845;30;20058;-82
2023/11/10 07:21:50;;;;;;;2.72;0.90;;;;;;;;;;5900866;30;20039;-83
2023/11/10 07:24:52;;;;;;;1.95;0.70;;;;;;;;;;5902738;30;20058;-83
2023/11/10 07:27:57;;;;;;;4.70;0.73;;;;;;;;;;5909302;30;20048;-84
2023/11/10 07:31:02;;;;;;;3.80;1.05;;;;;;;;;;5914799;29;20054;-84
2023/11/10 07:34:04;;;;;;;3.75;0.70;;;;;;;;;;5917789;30;20058;-83
2023/11/10 07:37:06;;;;;;;6.55;1.00;;;;;;;;;;5916439;29;20054;-82
2023/11/10 07:40:10;;;;;;;3.15;0.70;;;;;;;;;;5916319;30;20055;-82
2023/11/10 07:43:12;;;;;;;1.73;0.60;;;;;;;;;;5913088;29;20051;-83
2023/11/10 07:46:15;;;;;;;2.38;0.70;;;;;;;;;;5910503;29;20077;-83
2023/11/10 07:49:17;;;;;;;2.85;0.70;;;;;;;;;;5905662;29;20053;-83
2023/11/10 07:52:20;;;;;;;3.20;0.88;;;;;;;;;;5911466;30;20523;-83
2023/11/10 07:55:27;;;;;;;2.97;1.25;;;;;;;;;;5886741;30;20051;-83
2023/11/10 07:58:29;;;;;;;2.30;0.50;;;;;;;;;;5904346;30;20059;-83
2023/11/10 08:01:31;;;;;;;3.22;0.77;;;;;;;;;;5915167;29;20074;-83
2023/11/10 08:04:36;;;;;;;2.72;0.60;;;;;;;;;;5916768;30;20059;-83
2023/11/10 08:07:40;;;;;;;3.88;1.05;;;;;;;;;;5910851;29;20039;-83
2023/11/10 08:10:44;;;;;;;2.25;0.63;;;;;;;;;;5904386;29;20531;-83
2023/11/10 08:13:46;;;;;;;2.53;0.70;;;;;;;;;;5919827;29;20434;-84
2023/11/10 08:16:48;;;;;;;3.45;0.70;;;;;;;;;;5902614;29;20051;-82
2023/11/10 08:19:51;;;;;;;2.45;0.70;;;;;;;;;;5922442;30;20141;-82
2023/11/10 08:22:52;;;;;;;1.50;0.68;;;;;;;;;;5918143;29;20070;-83
2023/11/10 08:25:54;;;;;;;3.22;1.17;;;;;;;;;;5888395;30;20046;-84
2023/11/10 08:28:56;;;;;;;4.85;1.00;;;;;;;;;;5920896;30;20366;-84
2023/11/10 08:31:59;;;;;;;3.78;0.98;;;;;;;;;;5920840;29;20055;-84
2023/11/10 08:35:01;;;;;;;3.38;0.88;;;;;;;;;;5936297;30;20047;-82
2023/11/10 08:38:03;;;;;;;2.25;0.90;;;;;;;;;;5907625;30;20516;-81
2023/11/10 08:41:05;;;;;;;5.03;0.90;;;;;;;;;;5902558;30;20055;-84
2023/11/10 08:44:08;;;;;;;3.78;0.88;;;;;;;;;;5912421;30;20266;-84
2023/11/10 08:47:09;;;;;;;4.82;0.75;;;;;;;;;;5922277;29;20113;-84
2023/11/10 08:50:12;;;;;;;1.38;0.73;;;;;;;;;;5924363;30;20062;-82
2023/11/10 08:53:15;;;;;;;3.95;0.60;;;;;;;;;;5903160;29;20093;-83
2023/11/10 08:56:20;;;;;;;2.67;0.73;;;;;;;;;;5902431;29;20062;-82
2023/11/10 08:59:23;;;;;;;1.45;0.68;;;;;;;;;;5917981;29;20059;-80
2023/11/10 09:02:25;;;;;;;1.23;0.63;;;;;;;;;;5933160;29;20214;-83
2023/11/10 09:05:27;;;;;;;2.13;0.60;;;;;;;;;;5934956;29;20059;-82
2023/11/10 09:08:30;;;;;;;2.70;0.70;;;;;;;;;;5932315;29;20133;-81
2023/11/10 09:11:33;;;;;;;;;;;;;;;;;;5904386;29;20055;-81
2023/11/10 09:14:35;;;;;;;2.47;0.50;;;;;;;;;;5933895;29;19930;-82
2023/11/10 09:17:37;;;;;;;2.38;0.70;;;;;;;;;;5934673;29;20108;-82
2023/11/10 09:20:39;;;;;;;3.57;1.00;;;;;;;;;;5903340;30;20051;-82
2023/11/10 09:23:42;;;;;;;4.80;1.00;;;;;;;;;;5930036;29;20512;-81
2023/11/10 09:26:44;;;;;;;2.88;0.50;;;;;;;;;;5907179;30;20055;-82
2023/11/10 09:29:46;;;;;;;3.75;0.60;;;;;;;;;;5918456;30;20534;-80
2023/11/10 09:32:48;;;;;;;2.25;0.80;;;;;;;;;;5904562;30;20204;-83
2023/11/10 09:35:50;;;;;;;2.60;0.82;;;;;;;;;;5906060;29;20062;-81
2023/11/10 09:38:56;;;;;;;1.83;0.60;;;;;;;;;;5931163;29;20066;-82
2023/11/10 09:42:08;;;;;;;4.13;0.60;;;;;;;;;;5905861;29;20054;-82
2023/11/10 09:45:12;;;;;;;2.50;0.65;;;;;;;;;;5922025;29;20537;-82
2023/11/10 09:48:15;;;;;;;4.82;0.90;;;;;;;;;;5933405;29;20478;-81
2023/11/10 09:51:19;;;;;;;1.65;0.73;;;;;;;;;;5918290;29;20490;-82
2023/11/10 09:54:21;;;;;;;2.05;0.77;;;;;;;;;;5913538;29;20086;-81
2023/11/10 09:57:25;;;;;;;1.55;0.70;;;;;;;;;;5916606;29;20047;-82
2023/11/10 10:00:32;;;;;;;1.58;0.70;;;;;;;;;;5890780;29;20055;-82
2023/11/10 10:03:36;;;;;;;4.63;0.88;;;;;;;;;;5926664;29;20055;-81
2023/11/10 10:06:40;;;;;;;3.05;0.63;;;;;;;;;;5914628;29;20089;-82
2023/11/10 10:09:44;;;;;;;2.53;0.40;;;;;;;;;;5933496;29;20134;-80
2023/11/10 10:12:50;;;;;;;2.13;0.55;;;;;;;;;;5914745;29;20449;-82
2023/11/10 10:15:52;;;;;;;1.23;0.50;;;;;;;;;;5901915;29;20100;-82
2023/11/10 10:18:55;;;;;;;3.83;0.70;;;;;;;;;;5918074;29;20079;-82
2023/11/10 10:22:02;;;;;;;3.20;0.60;;;;;;;;;;5945914;29;20071;-81
2023/11/10 10:25:04;;;;;;;1.17;0.70;;;;;;;;;;5889086;29;20066;-82
2023/11/10 10:28:17;;;;;;;2.50;0.75;;;;;;;;;;5915355;29;20055;-82
2023/11/10 10:31:19;;;;;;;2.23;0.63;;;;;;;;;;5907313;29;20055;-80
2023/11/10 10:34:21;;;;;;;1.20;0.60;;;;;;;;;;5902113;29;20158;-83
2023/11/10 10:37:23;;;;;;;2.33;0.88;;;;;;;;;;5932457;29;20112;-82
2023/11/10 10:40:25;;;;;;;2.22;0.60;;;;;;;;;;5919813;29;20139;-82
2023/11/10 10:43:28;;;;;;;3.72;0.60;;;;;;;;;;5898715;29;20055;-82
2023/11/10 10:46:37;;;;;;;1.00;0.60;;;;;;;;;;5916687;29;20140;-81
2023/11/10 10:49:40;;;;;;;2.58;0.77;;;;;;;;;;5930399;29;20134;-83
2023/11/10 10:52:44;;;;;;;2.17;0.50;;;;;;;;;;5914174;29;20062;-81
2023/11/10 10:55:50;;;;;;;3.95;0.70;;;;;;;;;;5915691;29;20107;-80
2023/11/10 10:58:52;;;;;;;1.80;0.50;;;;;;;;;;5899706;29;20055;-80
2023/11/10 11:01:54;;;;;;;2.15;0.60;;;;;;;;;;5909454;29;20139;-81
2023/11/10 11:05:08;;;;;;;1.23;0.60;;;;;;;;;;5897746;29;20094;-82
2023/11/10 11:08:37;;;;;;;1.85;0.57;;;;;;;;;;5898142;30;20056;-81
2023/11/10 11:12:08;;;;;;;1.35;0.63;;;;;;;;;;5905587;30;20054;-83
2023/11/10 11:15:24;;;;;;;3.92;0.57;;;;;;;;;;5908473;30;20492;-81
2023/11/10 11:18:42;;;;;;;2.78;0.57;;;;;;;;;;5919829;29;20079;-83
2023/11/10 11:21:44;;;;;;;2.20;0.70;;;;;;;;;;5910350;30;20080;-83
2023/11/10 11:24:46;;;;;;;3.35;0.70;;;;;;;;;;5903600;30;20531;-83
2023/11/10 11:27:58;;;;;;;3.20;0.63;;;;;;;;;;5913725;30;20059;-83
2023/11/10 11:31:10;;;;;;;2.20;0.50;;;;;;;;;;5909204;29;20160;-83
2023/11/10 11:34:16;;;;;;;1.23;0.60;;;;;;;;;;5910539;30;20048;-84
2023/11/10 11:37:18;;;;;;;3.97;0.57;;;;;;;;;;5913638;30;20465;-82
2023/11/10 11:40:33;;;;;;;2.05;0.63;;;;;;;;;;5927055;29;20345;-80
2023/11/10 11:43:35;;;;;;;3.65;0.70;;;;;;;;;;5920811;29;20055;-82
2023/11/10 11:46:39;;;;;;;1.23;0.70;;;;;;;;;;5921927;29;20059;-82
2023/11/10 11:49:41;;;;;;;1.38;0.70;;;;;;;;;;5926173;30;20048;-82
2023/11/10 11:52:45;;;;;;;3.38;0.98;;;;;;;;;;5948211;29;20051;-84
2023/11/10 11:55:52;;;;;;;2.38;0.77;;;;;;;;;;5949835;29;20047;-82
2023/11/10 11:58:55;;;;;;;3.30;1.05;;;;;;;;;;5929743;29;20043;-81
2023/11/10 12:01:57;;;;;;;2.05;0.80;;;;;;;;;;5934821;29;20055;-82
2023/11/10 12:04:59;;;;;;;6.57;2.13;;;;;;;;;;5931132;29;20245;-83
2023/11/10 12:08:01;;;;;;;2.13;1.08;;;;;;;;;;5938503;29;20062;-86
2023/11/10 12:11:02;;;;;;;2.38;0.45;;;;;;;;;;5937316;29;20508;-84
2023/11/10 12:14:06;;;;;;;2.88;0.80;;;;;;;;;;5923578;30;20507;-81
2023/11/10 12:17:08;;;;;;;2.17;0.75;;;;;;;;;;5922504;29;20066;-85
2023/11/10 12:20:12;;;;;;;2.45;0.85;;;;;;;;;;5923980;29;20067;-83
2023/11/10 12:23:14;;;;;;;1.42;0.75;;;;;;;;;;5911562;29;20065;-83
2023/11/10 12:26:16;;;;;;;3.28;0.60;;;;;;;;;;5907232;29;20134;-83
2023/11/10 12:29:28;;;;;;;1.85;0.50;;;;;;;;;;5923605;29;20071;-83
2023/11/10 12:32:30;;;;;;;3.42;0.68;;;;;;;;;;5923069;30;20060;-84
2023/11/10 12:35:33;;;;;;;3.88;0.68;;;;;;;;;;5924212;29;20158;-84
2023/11/10 12:38:35;;;;;;;1.88;0.80;;;;;;;;;;5925090;29;20419;-81
2023/11/10 12:41:37;;;;;;;2.60;0.75;;;;;;;;;;5914057;30;20460;-88
2023/11/10 12:44:39;;;;;;;0.82;0.30;;;;;;;;;;5920359;29;20261;-83
2023/11/10 12:47:46;;;;;;;4.63;1.07;;;;;;;;;;5918006;30;20435;-86
2023/11/10 12:51:04;;;;;;;3.10;0.90;;;;;;;;;;5908229;30;20062;-85
2023/11/10 12:54:06;;;;;;;3.25;0.77;;;;;;;;;;5931010;29;20106;-85
2023/11/10 12:57:08;;;;;;;2.80;0.90;;;;;;;;;;5934850;30;20189;-84
2023/11/10 13:00:12;;;;;;;2.88;1.42;;;;;;;;;;5923028;30;20522;-86
2023/11/10 13:03:13;;;;;;;2.08;1.02;;;;;;;;;;5903629;30;20138;-85
2023/11/10 13:06:16;;;;;;;2.75;0.50;;;;;;;;;;5927400;29;20048;-87
2023/11/10 13:09:18;;;;;;;2.53;0.70;;;;;;;;;;5910036;30;20128;-85
2023/11/10 13:12:19;;;;;;;4.00;0.70;;;;;;;;;;5927325;30;20289;-86
2023/11/10 13:15:21;;;;;;;2.15;0.50;;;;;;;;;;5924279;30;20055;-87
2023/11/10 13:18:23;;;;;;;1.65;0.50;;;;;;;;;;5924017;29;20054;-86
2023/11/10 13:21:25;;;;;;;1.73;0.60;;;;;;;;;;5912516;30;20531;-85
2023/11/10 13:24:27;;;;;;;1.42;0.95;;;;;;;;;;5923942;30;20063;-86
2023/11/10 13:27:29;;;;;;;3.80;0.82;;;;;;;;;;5938289;29;20052;-86
2023/11/10 13:30:30;;;;;;;3.13;0.88;;;;;;;;;;5920940;30;20272;-85
2023/11/10 13:33:36;;;;;;;1.13;0.50;;;;;;;;;;5927094;30;20051;-85
2023/11/10 13:36:38;;;;;;;3.85;0.70;;;;;;;;;;5921970;29;20058;-85
2023/11/10 13:39:41;;;;;;;3.90;0.60;;;;;;;;;;5945432;29;20193;-83
2023/11/10 13:42:44;;;;;;;2.60;0.60;;;;;;;;;;5910745;30;20059;-86
2023/11/10 13:45:46;;;;;;;1.23;0.70;;;;;;;;;;5931778;30;20054;-87
2023/11/10 13:48:50;;;;;;;3.88;1.08;;;;;;;;;;5938626;29;20047;-86
2023/11/10 13:51:52;;;;;;;2.75;0.60;;;;;;;;;;5923703;30;20055;-87
2023/11/10 13:54:54;;;;;;;2.13;0.77;;;;;;;;;;5909329;29;20090;-87
2023/11/10 13:57:56;;;;;;;6.88;1.00;;;;;;;;;;5922263;29;20050;-87
2023/11/10 14:00:58;;;;;;;1.83;1.35;;;;;;;;;;5914481;30;20055;-85
2023/11/10 14:04:00;;;;;;;4.97;1.60;;;;;;;;;;5892117;30;20060;-85
2023/11/10 14:07:03;;;;;;;8.07;3.40;;;;;;;;;;5913976;30;20504;-85
2023/11/10 14:10:06;;;;;;;4.80;2.33;;;;;;;;;;5910378;30;20051;-86
2023/11/10 14:13:08;;;;;;;17.07;6.03;;;;;;;;;;5906698;30;20051;-86
2023/11/10 14:16:11;;;;;;;8.52;3.33;;;;;;;;;;5925178;30;20054;-87
2023/11/10 14:19:13;;;;;;;5.22;1.20;;;;;;;;;;5936519;29;20095;-85
2023/11/10 14:22:15;;;;;;;5.17;1.50;;;;;;;;;;5928293;30;20051;-86
2023/11/10 14:25:17;;;;;;;1.85;1.52;;;;;;;;;;5940224;29;20461;-86
2023/11/10 14:28:19;;;;;;;7.25;1.75;;;;;;;;;;5930225;29;20110;-87
2023/11/10 14:31:21;;;;;;;5.55;2.42;;;;;;;;;;5924072;29;20051;-85
2023/11/10 14:34:24;;;;;;;6.53;3.75;;;;;;;;;;5917948;30;20051;-86
2023/11/10 14:37:31;;;;;;;;;;;;;;;;;;5920089;30;20047;-86
2023/11/10 14:40:33;;;;;;;3.55;1.10;;;;;;;;;;5939446;29;19929;-85
2023/11/10 14:43:35;;;;;;;5.03;1.02;;;;;;;;;;5923374;29;20488;-85
2023/11/10 14:46:37;;;;;;;4.47;3.88;;;;;;;;;;5921133;29;20058;-86
2023/11/10 14:49:44;;;;;;;9.03;3.50;;;;;;;;;;5902505;29;20207;-86
2023/11/10 14:52:48;;;;;;;5.50;2.53;;;;;;;;;;5938262;29;20043;-86
2023/11/10 14:55:52;;;;;;;10.60;4.30;;;;;;;;;;5921427;29;20051;-86
2023/11/10 14:58:53;;;;;;;6.45;3.30;;;;;;;;;;5919404;29;20396;-87
2023/11/10 15:01:55;;;;;;;5.90;1.67;;;;;;;;;;5916176;30;20051;-86
2023/11/10 15:04:57;;;;;;;4.05;2.80;;;;;;;;;;5936296;30;20047;-85
2023/11/10 15:07:59;;;;;;;5.75;2.85;;;;;;;;;;5937706;30;20059;-85
2023/11/10 15:11:01;;;;;;;11.07;4.57;;;;;;;;;;5919397;30;20051;-85
2023/11/10 15:14:06;;;;;;;6.18;2.17;;;;;;;;;;5911614;30;20055;-85
2023/11/10 15:17:08;;;;;;;12.80;4.50;;;;;;;;;;5938467;29;20507;-84
2023/11/10 15:20:11;;;;;;;13.35;5.75;;;;;;;;;;5923322;29;20063;-85
2023/11/10 15:23:14;;;;;;;17.85;7.07;;;;;;;;;;5935407;29;20089;-85
2023/11/10 15:26:15;;;;;;;21.40;6.90;;;;;;;;;;5907151;30;20469;-85
2023/11/10 15:29:17;;;;;;;12.20;6.18;;;;;;;;;;5923759;30;21037;-84
2023/11/10 15:32:20;;;;;;;4.90;2.10;;;;;;;;;;5933233;29;20051;-84
2023/11/10 15:35:21;;;;;;;4.53;1.55;;;;;;;;;;5922061;30;20198;-85
2023/11/10 15:38:26;;;;;;;4.65;1.90;;;;;;;;;;5936148;29;20105;-84
2023/11/10 15:41:28;;;;;;;7.18;1.98;;;;;;;;;;5918813;29;20059;-85
2023/11/10 15:44:29;;;;;;;8.10;2.58;;;;;;;;;;5929152;29;20063;-85
2023/11/10 15:47:31;;;;;;;17.40;8.25;;;;;;;;;;5922710;30;20055;-85
2023/11/10 15:50:34;;;;;;;6.55;3.15;;;;;;;;;;5940887;30;20059;-84
2023/11/10 15:53:36;;;;;;;4.13;2.40;;;;;;;;;;5948384;30;20107;-86
2023/11/10 15:56:38;;;;;;;5.72;2.63;;;;;;;;;;5931377;30;20066;-85
2023/11/10 15:59:40;;;;;;;6.73;2.63;;;;;;;;;;5939734;29;20051;-85
2023/11/10 16:02:41;;;;;;;7.13;2.90;;;;;;;;;;5917217;30;20055;-84
2023/11/10 16:05:43;;;;;;;3.40;1.92;;;;;;;;;;5949728;30;20058;-84
2023/11/10 16:08:46;;;;;;;5.90;2.20;;;;;;;;;;5921363;30;20359;-83
2023/11/10 16:11:49;;;;;;;3.13;1.60;;;;;;;;;;5949143;29;20096;-85
2023/11/10 16:14:51;;;;;;;2.90;1.55;;;;;;;;;;5930759;30;20057;-86
2023/11/10 16:17:53;;;;;;;23.85;12.65;;;;;;;;;;5917214;30;20420;-86
2023/11/10 16:20:55;;;;;;;5.17;1.73;;;;;;;;;;5929474;30;20130;-84
2023/11/10 16:23:57;;;;;;;4.55;2.70;;;;;;;;;;5950752;30;20073;-87
2023/11/10 16:26:59;;;;;;;5.07;2.65;;;;;;;;;;5933877;30;20050;-86
2023/11/10 16:30:01;;;;;;;4.05;2.22;;;;;;;;;;5943050;30;20039;-86
2023/11/10 16:33:03;;;;;;;6.50;3.22;;;;;;;;;;5953844;29;20055;-85
2023/11/10 16:36:06;;;;;;;9.45;4.68;;;;;;;;;;5961344;29;20116;-86
2023/11/10 16:39:09;;;;;;;9.63;3.88;;;;;;;;;;5960108;29;20134;-86
2023/11/10 16:42:11;;;;;;;11.82;5.03;;;;;;;;;;5925367;29;20052;-85
2023/11/10 16:45:13;;;;;;;7.47;3.78;;;;;;;;;;5920179;29;20066;-84
2023/11/10 16:48:16;;;;;;;11.10;4.35;;;;;;;;;;5933284;29;20055;-83
2023/11/10 16:51:17;;;;;;;6.72;3.38;;;;;;;;;;5925485;29;20059;-86
2023/11/10 16:54:20;;;;;;;6.80;2.80;;;;;;;;;;5929092;29;20062;-85
2023/11/10 16:57:23;;;;;;;6.28;3.25;;;;;;;;;;5951560;29;20047;-86
2023/11/10 17:00:25;;;;;;;4.05;2.60;;;;;;;;;;5947802;29;20047;-86
2023/11/10 17:03:40;;;;;;;7.20;3.38;;;;;;;;;;5926268;29;20066;-84
2023/11/10 17:06:43;;;;;;;10.07;4.60;;;;;;;;;;5899433;29;20051;-85
2023/11/10 17:09:44;;;;;;;9.67;3.90;;;;;;;;;;5921119;29;20051;-85
2023/11/10 17:12:46;;;;;;;14.20;9.27;;;;;;;;;;5911915;29;20047;-86
2023/11/10 17:15:49;;;;;;;13.27;6.88;;;;;;;;;;5922997;29;20443;-85
2023/11/10 17:18:51;;;;;;;9.80;5.97;;;;;;;;;;5922178;29;20051;-85
2023/11/10 17:21:53;;;;;;;10.88;5.75;;;;;;;;;;5934147;29;20059;-85
2023/11/10 17:24:55;;;;;;;5.40;4.15;;;;;;;;;;5922053;29;20059;-85
2023/11/10 17:27:56;;;;;;;6.28;4.45;;;;;;;;;;5917457;29;20062;-84
2023/11/10 17:30:59;;;;;;;5.75;2.28;;;;;;;;;;5922655;29;20488;-84
2023/11/10 17:34:01;;;;;;;11.07;3.28;;;;;;;;;;5916493;29;20043;-83
2023/11/10 17:37:05;;;;;;;8.48;2.85;;;;;;;;;;5923247;29;20063;-85
2023/11/10 17:40:08;;;;;;;8.82;5.25;;;;;;;;;;5920204;29;20146;-85
2023/11/10 17:43:12;;;;;;;4.55;3.08;;;;;;;;;;5920839;29;20047;-83
2023/11/10 17:46:14;;;;;;;5.50;3.03;;;;;;;;;;5918266;29;20055;-85
2023/11/10 17:49:16;;;;;;;15.75;6.75;;;;;;;;;;5903175;29;20420;-85
2023/11/10 17:52:17;;;;;;;29.73;11.13;;;;;;;;;;5902740;29;20147;-85
2023/11/10 17:55:19;;;;;;;11.38;4.53;;;;;;;;;;5936225;29;20051;-85
2023/11/10 17:58:22;;;;;;;8.52;3.63;;;;;;;;;;5933770;29;20059;-84
2023/11/10 18:01:23;;;;;;;12.90;3.53;;;;;;;;;;5930538;29;20050;-84
2023/11/10 18:04:25;;;;;;;5.75;2.80;;;;;;;;;;5933911;29;20055;-84
2023/11/10 18:07:27;;;;;;;6.88;3.60;;;;;;;;;;5935038;29;20139;-84
2023/11/10 18:10:32;;;;;;;7.90;3.83;;;;;;;;;;5936069;29;20088;-83
2023/11/10 18:13:35;;;;;;;5.60;2.35;;;;;;;;;;5926293;29;20063;-84
2023/11/10 18:16:37;;;;;;;5.00;2.60;;;;;;;;;;5917243;29;20053;-85